createdAt,value
2023-05-10T00:00:02.461Z,29.13
2023-05-10T00:02:39.860Z,29.61
2023-05-10T00:05:07.159Z,29.47
2023-05-10T00:07:33.704Z,29.85
2023-05-10T00:10:00.209Z,29.77
2023-05-10T00:12:26.708Z,29.70
2023-05-10T00:14:53.236Z,29.91
2023-05-10T00:17:19.742Z,29.85
2023-05-10T00:19:46.263Z,29.87
2023-05-10T00:22:12.770Z,29.83
2023-05-10T00:24:39.267Z,29.74
2023-05-10T00:27:06.041Z,29.82
2023-05-10T00:29:32.810Z,29.75
2023-05-10T00:31:59.414Z,30.11
2023-05-10T00:34:25.988Z,29.96
2023-05-10T00:36:52.476Z,29.98
2023-05-10T00:39:18.993Z,30.16
2023-05-10T00:41:46.110Z,30.23
2023-05-10T00:44:12.768Z,30.37
2023-05-10T00:46:39.546Z,30.21
2023-05-10T00:49:06.580Z,30.12
2023-05-10T00:51:33.141Z,30.28
2023-05-10T00:53:59.705Z,30.35
2023-05-10T00:56:26.705Z,30.36
2023-05-10T00:58:53.393Z,30.46
2023-05-10T01:01:20.579Z,30.29
2023-05-10T01:03:47.889Z,30.31
2023-05-10T01:06:15.775Z,30.23
2023-05-10T01:08:42.351Z,30.44
2023-05-10T01:11:08.931Z,30.43
2023-05-10T01:13:40.379Z,30.34
2023-05-10T01:16:07.859Z,30.52
2023-05-10T01:18:37.203Z,30.40
2023-05-10T01:21:20.623Z,29.99
2023-05-10T01:24:00.525Z,30.20
2023-05-10T01:26:43.627Z,30.41
2023-05-10T01:29:44.781Z,30.51
2023-05-10T01:32:21.161Z,30.43
2023-05-10T01:34:56.770Z,30.54
2023-05-10T01:37:32.912Z,30.58
2023-05-10T01:40:06.554Z,30.80
2023-05-10T01:42:40.414Z,30.34
2023-05-10T01:45:15.169Z,30.72
2023-05-10T01:47:43.847Z,30.73
2023-05-10T01:50:19.373Z,30.87
2023-05-10T01:52:50.873Z,30.61
2023-05-10T01:55:19.555Z,30.80
2023-05-10T01:57:47.482Z,30.78
2023-05-10T02:00:15.681Z,30.78
2023-05-10T02:02:46.174Z,31.21
2023-05-10T02:05:14.277Z,31.17
2023-05-10T02:07:41.908Z,31.59
2023-05-10T02:10:09.263Z,31.33
2023-05-10T02:12:42.433Z,31.55
2023-05-10T02:15:09.161Z,31.55
2023-05-10T02:17:37.307Z,31.37
2023-05-10T02:20:07.024Z,31.43
2023-05-10T02:22:33.853Z,31.76
2023-05-10T02:25:01.967Z,31.54
2023-05-10T02:27:28.956Z,31.29
2023-05-10T02:29:55.810Z,31.60
2023-05-10T02:32:23.585Z,31.36
2023-05-10T02:34:53.125Z,31.70
2023-05-10T02:37:21.156Z,31.47
2023-05-10T02:39:51.942Z,31.72
2023-05-10T02:42:19.963Z,31.71
2023-05-10T02:44:49.155Z,31.81
2023-05-10T02:47:15.799Z,32.33
2023-05-10T02:49:42.733Z,32.23
2023-05-10T02:52:10.201Z,32.23
2023-05-10T02:54:46.055Z,32.42
2023-05-10T02:57:17.177Z,32.27
2023-05-10T02:59:44.074Z,32.27
2023-05-10T03:02:11.305Z,32.42
2023-05-10T03:04:37.871Z,32.53
2023-05-10T03:07:04.648Z,32.43
2023-05-10T03:09:32.262Z,32.78
2023-05-10T03:12:28.900Z,33.19
2023-05-10T03:15:04.857Z,33.27
2023-05-10T03:17:48.370Z,33.16
2023-05-10T03:20:32.991Z,33.18
2023-05-10T03:23:06.084Z,33.14
2023-05-10T03:25:33.111Z,32.99
2023-05-10T03:28:02.385Z,33.42
2023-05-10T03:30:29.210Z,33.19
2023-05-10T03:32:55.822Z,33.26
2023-05-10T03:35:22.373Z,33.13
2023-05-10T03:37:49.658Z,33.12
2023-05-10T03:40:17.050Z,33.01
2023-05-10T03:42:44.229Z,33.05
2023-05-10T03:45:11.698Z,33.60
2023-05-10T03:47:38.292Z,33.06
2023-05-10T03:50:05.458Z,33.26
2023-05-10T03:52:33.127Z,33.60
2023-05-10T03:54:59.660Z,33.33
2023-05-10T03:57:26.213Z,33.57
2023-05-10T03:59:52.734Z,33.78
2023-05-10T04:02:19.288Z,33.48
2023-05-10T04:04:46.081Z,33.40
2023-05-10T04:07:12.613Z,33.56
2023-05-10T04:09:39.846Z,33.11
2023-05-10T04:12:07.989Z,33.31
2023-05-10T04:14:35.483Z,33.39
2023-05-10T04:17:02.242Z,33.14
2023-05-10T04:19:32.185Z,33.07
2023-05-10T04:21:59.312Z,32.94
2023-05-10T04:24:25.824Z,32.87
2023-05-10T04:26:52.415Z,33.47
2023-05-10T04:29:18.964Z,33.03
2023-05-10T04:31:45.489Z,33.05
2023-05-10T04:34:12.084Z,33.16
2023-05-10T04:36:38.687Z,33.12
2023-05-10T04:39:05.264Z,33.29
2023-05-10T04:41:31.810Z,33.22
2023-05-10T04:43:58.365Z,33.32
2023-05-10T04:46:24.891Z,33.03
2023-05-10T04:48:51.512Z,32.59
2023-05-10T04:51:18.017Z,32.37
2023-05-10T04:53:51.129Z,32.65
2023-05-10T04:56:24.288Z,32.46
2023-05-10T04:58:50.796Z,32.97
2023-05-10T05:01:17.303Z,32.18
2023-05-10T05:03:43.894Z,32.41
2023-05-10T05:06:10.498Z,32.26
2023-05-10T05:08:37.040Z,32.46
2023-05-10T05:11:03.542Z,32.28
2023-05-10T05:13:30.429Z,32.53
2023-05-10T05:15:57.099Z,32.24
2023-05-10T05:18:23.637Z,32.34
2023-05-10T05:20:50.371Z,32.32
2023-05-10T05:23:17.403Z,32.13
2023-05-10T05:25:43.945Z,32.03
2023-05-10T05:28:10.424Z,31.67
2023-05-10T05:30:36.939Z,31.67
2023-05-10T05:33:03.651Z,32.04
2023-05-10T05:35:30.223Z,31.74
2023-05-10T05:37:57.195Z,31.95
2023-05-10T05:40:23.848Z,31.68
2023-05-10T05:42:50.744Z,31.64
2023-05-10T05:45:17.581Z,31.35
2023-05-10T05:47:44.368Z,31.33
2023-05-10T05:50:10.987Z,30.95
2023-05-10T05:52:37.566Z,30.95
2023-05-10T05:55:04.643Z,30.96
2023-05-10T05:57:31.238Z,30.96
2023-05-10T05:59:57.775Z,30.95
2023-05-10T06:02:24.348Z,30.59
2023-05-10T06:04:51.404Z,30.53
2023-05-10T06:07:17.933Z,30.63
2023-05-10T06:09:44.439Z,30.43
2023-05-10T06:12:11.010Z,30.12
2023-05-10T06:14:37.550Z,30.27
2023-05-10T06:17:06.163Z,30.15
2023-05-10T06:19:33.816Z,29.84
2023-05-10T06:22:00.313Z,29.74
2023-05-10T06:24:28.135Z,29.69
2023-05-10T06:26:54.643Z,29.36
2023-05-10T06:29:21.132Z,29.49
2023-05-10T06:31:47.740Z,29.00
2023-05-10T06:34:14.520Z,28.91
2023-05-10T06:36:41.045Z,28.50
2023-05-10T06:41:48.489Z,28.66
2023-05-10T06:44:14.985Z,28.11
2023-05-10T06:46:42.574Z,24.73
2023-05-10T06:49:09.465Z,20.33
2023-05-10T06:51:36.259Z,18.09
2023-05-10T06:54:02.917Z,16.32
2023-05-10T06:56:29.497Z,15.22
2023-05-10T06:58:56.827Z,14.34
2023-05-10T07:01:23.404Z,14.22
2023-05-10T07:03:49.983Z,15.02
2023-05-10T07:06:29.389Z,17.49
2023-05-10T07:08:59.690Z,19.81
2023-05-10T07:11:26.193Z,21.14
2023-05-10T07:13:52.678Z,22.10
2023-05-10T07:16:19.291Z,22.89
2023-05-10T07:18:45.894Z,22.89
2023-05-10T07:21:12.526Z,23.30
2023-05-10T07:23:39.047Z,23.81
2023-05-10T07:26:05.728Z,23.90
2023-05-10T07:28:32.260Z,23.97
2023-05-10T07:30:59.076Z,23.92
2023-05-10T07:33:25.650Z,23.89
2023-05-10T07:35:52.657Z,23.93
2023-05-10T07:38:19.163Z,23.93
2023-05-10T07:40:45.669Z,24.21
2023-05-10T07:43:12.187Z,23.92
2023-05-10T07:45:38.752Z,23.53
2023-05-10T07:48:05.390Z,24.05
2023-05-10T07:50:31.912Z,23.67
2023-05-10T07:52:58.769Z,24.05
2023-05-10T07:55:25.589Z,23.67
2023-05-10T07:57:52.199Z,23.63
2023-05-10T08:00:20.288Z,23.35
2023-05-10T08:02:47.519Z,23.95
2023-05-10T08:05:14.526Z,23.47
2023-05-10T08:07:41.393Z,23.50
2023-05-10T08:10:08.741Z,23.52
2023-05-10T08:12:35.284Z,23.54
2023-05-10T08:15:01.801Z,23.66
2023-05-10T08:17:28.409Z,23.45
2023-05-10T08:19:55.095Z,23.34
2023-05-10T08:22:21.718Z,23.58
2023-05-10T08:24:48.227Z,23.23
2023-05-10T08:27:14.819Z,22.38
2023-05-10T08:29:49.667Z,22.39
2023-05-10T08:32:17.028Z,22.11
2023-05-10T08:34:43.634Z,21.25
2023-05-10T08:37:11.504Z,20.23
2023-05-10T08:39:38.329Z,18.84
2023-05-10T08:42:05.866Z,17.45
2023-05-10T08:44:33.432Z,16.29
2023-05-10T08:47:00.803Z,15.66
2023-05-10T08:49:28.593Z,14.94
2023-05-10T08:51:56.867Z,14.64
2023-05-10T08:54:23.980Z,13.58
2023-05-10T08:56:50.591Z,13.13
2023-05-10T08:59:17.293Z,12.68
2023-05-10T09:01:46.472Z,12.39
2023-05-10T09:04:13.717Z,12.57
2023-05-10T09:06:40.488Z,11.95
2023-05-10T09:09:07.450Z,11.86
2023-05-10T09:11:33.945Z,11.89
2023-05-10T09:14:00.747Z,11.78
2023-05-10T09:16:27.307Z,11.55
2023-05-10T09:18:53.932Z,10.76
2023-05-10T09:21:21.597Z,10.68
2023-05-10T09:23:50.980Z,10.97
2023-05-10T09:26:18.401Z,11.57
2023-05-10T09:28:56.944Z,11.17
2023-05-10T09:31:24.630Z,11.13
2023-05-10T09:33:52.111Z,10.68
2023-05-10T09:36:18.837Z,11.01
2023-05-10T09:38:53.776Z,10.94
2023-05-10T09:41:22.767Z,11.38
2023-05-10T09:43:51.641Z,10.94
2023-05-10T09:46:18.261Z,10.96
2023-05-10T09:48:46.643Z,11.02
2023-05-10T09:51:23.743Z,9.91
2023-05-10T09:54:10.049Z,10.38
2023-05-10T09:56:38.487Z,10.33
2023-05-10T09:59:05.662Z,10.35
2023-05-10T10:01:32.464Z,9.82
2023-05-10T10:03:59.307Z,10.39
2023-05-10T10:06:30.122Z,10.98
2023-05-10T10:08:57.558Z,10.38
2023-05-10T10:11:24.689Z,10.33
2023-05-10T10:13:51.239Z,10.01
2023-05-10T10:16:18.155Z,10.91
2023-05-10T10:18:44.732Z,11.43
2023-05-10T10:21:11.445Z,11.46
2023-05-10T10:23:37.943Z,11.77
2023-05-10T10:26:05.438Z,10.93
2023-05-10T10:28:38.604Z,11.06
2023-05-10T10:31:34.651Z,11.23
2023-05-10T10:34:05.028Z,10.62
2023-05-10T10:36:31.520Z,10.41
2023-05-10T10:39:02.340Z,10.41
2023-05-10T10:41:41.845Z,10.15
2023-05-10T10:44:26.757Z,10.46
2023-05-10T10:47:12.499Z,10.20
2023-05-10T10:49:41.872Z,11.10
2023-05-10T10:52:34.505Z,10.47
2023-05-10T10:55:07.701Z,10.44
2023-05-10T10:57:56.033Z,10.23
2023-05-10T11:00:26.780Z,10.56
2023-05-10T11:03:15.798Z,10.67
2023-05-10T11:05:46.417Z,10.56
2023-05-10T11:08:14.050Z,10.86
2023-05-10T11:10:49.506Z,10.61
2023-05-10T11:13:16.110Z,10.37
2023-05-10T11:15:51.183Z,9.62
2023-05-10T11:18:31.058Z,10.15
2023-05-10T11:21:03.733Z,10.29
2023-05-10T11:23:40.232Z,10.21
2023-05-10T11:26:10.397Z,10.88
2023-05-10T11:28:42.178Z,11.69
2023-05-10T11:31:08.812Z,10.55
2023-05-10T11:33:52.125Z,11.17
2023-05-10T11:36:20.680Z,10.33
2023-05-10T11:38:47.832Z,10.66
2023-05-10T11:41:14.911Z,11.05
2023-05-10T11:43:42.090Z,10.79
2023-05-10T11:46:11.384Z,10.24
2023-05-10T11:48:39.650Z,10.72
2023-05-10T11:51:06.233Z,10.71
2023-05-10T11:53:33.878Z,11.62
2023-05-10T11:56:12.951Z,11.19
2023-05-10T11:58:40.686Z,10.84
2023-05-10T12:01:08.683Z,11.11
2023-05-10T12:03:35.688Z,11.12
2023-05-10T12:06:03.357Z,10.99
2023-05-10T12:08:31.761Z,10.69
2023-05-10T12:11:07.180Z,10.63
2023-05-10T12:13:33.688Z,10.83
2023-05-10T12:16:00.365Z,10.67
2023-05-10T12:18:26.983Z,10.19
2023-05-10T12:20:57.105Z,11.23
2023-05-10T12:23:23.610Z,11.33
2023-05-10T12:25:50.165Z,10.53
2023-05-10T12:28:20.163Z,10.25
2023-05-10T12:30:46.678Z,10.35
2023-05-10T12:33:15.983Z,10.69
2023-05-10T12:35:47.702Z,10.55
2023-05-10T12:38:46.780Z,10.59
2023-05-10T12:41:16.702Z,10.45
2023-05-10T12:43:43.435Z,10.82
2023-05-10T12:46:11.334Z,11.67
2023-05-10T12:48:38.623Z,10.68
2023-05-10T12:51:06.333Z,10.47
2023-05-10T12:53:33.048Z,10.15
2023-05-10T12:55:59.562Z,11.20
2023-05-10T12:58:34.876Z,11.24
2023-05-10T13:01:02.051Z,10.39
2023-05-10T13:03:28.632Z,10.82
2023-05-10T13:05:55.127Z,10.18
2023-05-10T13:08:21.667Z,10.48
2023-05-10T13:10:48.236Z,10.87
2023-05-10T13:13:15.133Z,10.70
2023-05-10T13:15:41.636Z,10.16
2023-05-10T13:18:08.152Z,9.80
2023-05-10T13:20:34.730Z,10.28
2023-05-10T13:23:01.324Z,9.71
2023-05-10T13:25:27.922Z,9.91
2023-05-10T13:27:54.451Z,9.48
2023-05-10T13:30:21.505Z,9.07
2023-05-10T13:32:48.120Z,9.54
2023-05-10T13:35:14.628Z,9.98
2023-05-10T13:37:41.145Z,9.73
2023-05-10T13:40:08.098Z,9.64
2023-05-10T13:42:34.678Z,10.05
2023-05-10T13:45:02.736Z,10.11
2023-05-10T13:47:29.396Z,10.96
2023-05-10T13:49:56.285Z,10.84
2023-05-10T13:52:22.799Z,10.65
2023-05-10T13:54:49.425Z,10.88
2023-05-10T13:57:17.688Z,11.28
2023-05-10T13:59:44.245Z,11.57
2023-05-10T14:02:13.910Z,11.39
2023-05-10T14:04:40.447Z,11.47
2023-05-10T14:07:06.986Z,11.67
2023-05-10T14:09:33.509Z,11.48
2023-05-10T14:12:00.057Z,12.06
2023-05-10T14:14:26.938Z,11.96
2023-05-10T14:16:53.486Z,11.83
2023-05-10T14:19:20.133Z,12.16
2023-05-10T14:21:46.768Z,12.71
2023-05-10T14:24:13.327Z,13.00
2023-05-10T14:26:39.847Z,12.91
2023-05-10T14:29:06.370Z,13.32
2023-05-10T14:31:32.954Z,14.04
2023-05-10T14:34:00.233Z,13.85
2023-05-10T14:36:26.905Z,14.57
2023-05-10T14:38:53.487Z,14.58
2023-05-10T14:41:20.051Z,14.96
2023-05-10T14:43:46.968Z,14.75
2023-05-10T14:46:13.588Z,15.05
2023-05-10T14:48:40.446Z,15.68
2023-05-10T14:51:07.620Z,15.78
2023-05-10T14:53:34.510Z,15.93
2023-05-10T14:56:02.326Z,15.43
2023-05-10T14:58:28.924Z,15.23
2023-05-10T15:00:55.476Z,15.93
2023-05-10T15:03:22.399Z,15.46
2023-05-10T15:05:49.343Z,15.96
2023-05-10T15:08:15.849Z,16.56
2023-05-10T15:10:42.598Z,16.03
2023-05-10T15:13:09.086Z,17.17
2023-05-10T15:15:35.660Z,16.96
2023-05-10T15:18:02.570Z,16.98
2023-05-10T15:20:29.119Z,17.20
2023-05-10T15:22:55.637Z,17.46
2023-05-10T15:25:22.249Z,17.62
2023-05-10T15:27:48.742Z,17.20
2023-05-10T15:30:15.412Z,17.48
2023-05-10T15:32:41.957Z,17.67
2023-05-10T15:35:09.357Z,17.66
2023-05-10T15:37:35.892Z,17.67
2023-05-10T15:40:05.315Z,17.50
2023-05-10T15:42:32.802Z,17.45
2023-05-10T15:44:59.598Z,17.80
2023-05-10T15:47:26.907Z,17.85
2023-05-10T15:49:53.506Z,17.79
2023-05-10T15:52:21.531Z,17.83
2023-05-10T15:54:48.235Z,17.82
2023-05-10T15:57:14.794Z,18.64
2023-05-10T15:59:41.577Z,19.91
2023-05-10T16:02:08.784Z,20.91
2023-05-10T16:04:35.366Z,22.21
2023-05-10T16:07:02.081Z,22.75
2023-05-10T16:09:28.650Z,23.30
2023-05-10T16:11:55.239Z,24.05
2023-05-10T16:14:22.954Z,24.38
2023-05-10T16:16:49.789Z,25.07
2023-05-10T16:19:16.365Z,25.90
2023-05-10T16:21:42.981Z,25.70
2023-05-10T16:24:09.584Z,26.13
2023-05-10T16:26:40.817Z,26.16
2023-05-10T16:29:08.510Z,26.16
2023-05-10T16:31:35.323Z,26.54
2023-05-10T16:34:02.032Z,26.53
2023-05-10T16:36:29.581Z,26.44
2023-05-10T16:38:56.560Z,27.02
2023-05-10T16:41:23.136Z,27.24
2023-05-10T16:43:50.166Z,27.29
2023-05-10T16:46:16.765Z,27.87
2023-05-10T16:48:43.326Z,27.99
2023-05-10T16:51:09.894Z,28.17
2023-05-10T16:53:36.448Z,28.48
2023-05-10T16:56:03.351Z,28.46
2023-05-10T16:58:29.878Z,28.77
2023-05-10T17:00:56.495Z,28.60
2023-05-10T17:03:23.433Z,28.55
2023-05-10T17:05:50.095Z,29.09
2023-05-10T17:08:16.832Z,29.20
2023-05-10T17:10:43.431Z,29.36
2023-05-10T17:13:10.657Z,29.71
2023-05-10T17:15:38.514Z,29.97
2023-05-10T17:18:05.624Z,30.34
2023-05-10T17:20:32.341Z,30.50
2023-05-10T17:22:59.235Z,30.53
2023-05-10T17:25:25.735Z,30.36
2023-05-10T17:27:52.276Z,30.67
2023-05-10T17:30:24.274Z,30.71
2023-05-10T17:32:50.886Z,30.98
2023-05-10T17:35:17.661Z,30.99
2023-05-10T17:37:44.852Z,31.20
2023-05-10T17:40:11.649Z,31.06
2023-05-10T17:42:38.193Z,31.00
2023-05-10T17:45:04.906Z,31.45
2023-05-10T17:47:31.565Z,31.29
2023-05-10T17:49:58.365Z,31.24
2023-05-10T17:52:24.880Z,31.72
2023-05-10T17:54:52.114Z,31.70
2023-05-10T17:57:18.670Z,31.67
2023-05-10T17:59:45.285Z,31.81
2023-05-10T18:02:11.823Z,31.81
2023-05-10T18:04:40.227Z,32.05
2023-05-10T18:07:07.888Z,32.39
2023-05-10T18:09:34.488Z,32.36
2023-05-10T18:12:04.018Z,32.41
2023-05-10T18:14:40.058Z,32.29
2023-05-10T18:17:07.694Z,32.34
2023-05-10T18:19:34.470Z,32.78
2023-05-10T18:22:01.045Z,32.54
2023-05-10T18:24:38.316Z,32.44
2023-05-10T18:27:06.670Z,33.00
2023-05-10T18:29:33.445Z,32.70
2023-05-10T18:31:59.975Z,33.42
2023-05-10T18:34:26.896Z,33.13
2023-05-10T18:36:53.426Z,33.09
2023-05-10T18:39:20.056Z,33.17
2023-05-10T18:41:46.580Z,33.40
2023-05-10T18:44:13.123Z,33.34
2023-05-10T18:46:39.770Z,33.57
2023-05-10T18:49:08.357Z,33.71
2023-05-10T18:51:34.969Z,33.79
2023-05-10T18:54:01.515Z,34.08
2023-05-10T18:56:28.217Z,33.86
2023-05-10T18:58:54.809Z,34.18
2023-05-10T19:01:21.438Z,34.49
2023-05-10T19:03:48.044Z,34.86
2023-05-10T19:06:14.554Z,34.95
2023-05-10T19:08:41.104Z,34.99
2023-05-10T19:11:07.663Z,34.70
2023-05-10T19:13:34.346Z,35.38
2023-05-10T19:16:12.818Z,35.23
2023-05-10T19:18:39.904Z,35.36
2023-05-10T19:21:09.612Z,35.35
2023-05-10T19:23:38.679Z,35.69
2023-05-10T19:26:05.692Z,35.76
2023-05-10T19:28:32.231Z,35.59
2023-05-10T19:30:58.882Z,36.02
2023-05-10T19:33:25.562Z,36.04
2023-05-10T19:35:52.802Z,35.92
2023-05-10T19:38:23.426Z,35.94
2023-05-10T19:40:50.890Z,36.12
2023-05-10T19:43:17.755Z,35.95
2023-05-10T19:45:44.344Z,36.21
2023-05-10T19:48:11.111Z,36.38
2023-05-10T19:50:38.352Z,36.23
2023-05-10T19:53:04.878Z,36.33
2023-05-10T19:55:32.300Z,36.66
2023-05-10T19:58:00.602Z,36.94
2023-05-10T20:00:27.705Z,36.91
2023-05-10T20:02:54.964Z,37.10
2023-05-10T20:05:22.116Z,37.21
2023-05-10T20:07:48.843Z,37.65
2023-05-10T20:10:16.621Z,37.64
2023-05-10T20:12:51.036Z,37.71
2023-05-10T20:15:20.086Z,37.69
2023-05-10T20:17:46.956Z,37.81
2023-05-10T20:20:15.996Z,37.60
2023-05-10T20:22:49.542Z,37.59
2023-05-10T20:25:16.944Z,37.60
2023-05-10T20:27:43.645Z,38.10
2023-05-10T20:30:10.803Z,38.18
2023-05-10T20:32:37.905Z,38.67
2023-05-10T20:35:05.660Z,38.90
2023-05-10T20:37:32.190Z,38.66
2023-05-10T20:39:58.767Z,38.76
2023-05-10T20:42:25.392Z,38.50
2023-05-10T20:44:51.985Z,39.41
2023-05-10T20:47:18.649Z,39.12
2023-05-10T20:49:45.165Z,39.27
2023-05-10T20:52:11.754Z,39.43
2023-05-10T20:54:38.229Z,39.19
2023-05-10T20:57:04.810Z,39.24
2023-05-10T20:59:31.309Z,39.34
2023-05-10T21:01:58.106Z,38.91
2023-05-10T21:04:25.727Z,39.02
2023-05-10T21:06:53.077Z,39.27
2023-05-10T21:09:19.705Z,39.31
2023-05-10T21:11:46.270Z,38.96
2023-05-10T21:14:12.769Z,39.09
2023-05-10T21:16:39.373Z,39.43
2023-05-10T21:19:07.150Z,39.42
2023-05-10T21:21:33.951Z,39.43
2023-05-10T21:24:00.516Z,39.33
2023-05-10T21:26:27.064Z,39.45
2023-05-10T21:28:53.577Z,39.47
2023-05-10T21:31:20.353Z,39.40
2023-05-10T21:33:47.082Z,39.18
2023-05-10T21:36:13.827Z,39.21
2023-05-10T21:38:41.009Z,39.02
2023-05-10T21:41:08.027Z,39.19
2023-05-10T21:43:34.721Z,39.27
2023-05-10T21:46:01.540Z,39.45
2023-05-10T21:48:28.167Z,39.53
2023-05-10T21:50:54.770Z,39.69
2023-05-10T21:53:22.307Z,39.65
2023-05-10T21:55:49.063Z,39.70
2023-05-10T21:58:15.580Z,39.41
2023-05-10T22:00:42.302Z,39.39
2023-05-10T22:03:08.934Z,39.24
2023-05-10T22:05:35.638Z,39.24
2023-05-10T22:08:02.152Z,39.18
2023-05-10T22:10:28.738Z,39.32
2023-05-10T22:12:55.267Z,39.22
2023-05-10T22:15:21.852Z,39.07
2023-05-10T22:17:48.504Z,39.28
2023-05-10T22:20:15.504Z,39.25
2023-05-10T22:22:42.179Z,39.17
2023-05-10T22:25:08.959Z,39.08
2023-05-10T22:27:35.599Z,39.39
2023-05-10T22:30:02.816Z,39.33
2023-05-10T22:32:29.414Z,39.48
2023-05-10T22:34:56.371Z,39.32
2023-05-10T22:37:22.882Z,39.01
2023-05-10T22:39:49.832Z,39.37
2023-05-10T22:42:16.611Z,39.77
2023-05-10T22:44:43.368Z,39.58
2023-05-10T22:47:09.855Z,39.80
2023-05-10T22:49:36.544Z,39.60
2023-05-10T22:52:03.096Z,39.60
2023-05-10T22:54:29.652Z,39.75
2023-05-10T22:56:56.514Z,40.07
2023-05-10T22:59:23.299Z,39.90
2023-05-10T23:01:49.838Z,40.00
2023-05-10T23:04:16.503Z,39.95
2023-05-10T23:06:43.040Z,39.90
2023-05-10T23:09:09.806Z,40.03
2023-05-10T23:11:36.536Z,40.29
2023-05-10T23:14:03.278Z,40.24
2023-05-10T23:16:30.499Z,40.33
2023-05-10T23:18:57.158Z,40.44
2023-05-10T23:21:25.156Z,40.75
2023-05-10T23:23:51.811Z,40.70
2023-05-10T23:26:18.377Z,40.98
2023-05-10T23:28:44.896Z,40.76
2023-05-10T23:31:11.592Z,40.79
2023-05-10T23:33:38.161Z,40.91
2023-05-10T23:36:04.820Z,41.15
2023-05-10T23:38:31.323Z,41.14
2023-05-10T23:40:57.972Z,41.13
2023-05-10T23:43:25.365Z,41.12
2023-05-10T23:45:53.628Z,41.44
2023-05-10T23:48:20.158Z,41.63
2023-05-10T23:50:46.850Z,42.13
2023-05-10T23:53:13.362Z,41.86
2023-05-10T23:55:39.915Z,41.91
2023-05-10T23:58:06.465Z,41.75
